createdAt,value
2019-02-14T00:02:26.905Z,86.84
2019-02-14T00:04:58.192Z,86.95
2019-02-14T00:07:29.769Z,87.32
2019-02-14T00:10:01.229Z,87.64
2019-02-14T00:12:32.814Z,87.79
2019-02-14T00:15:04.378Z,88.33
2019-02-14T00:17:36.293Z,88.67
2019-02-14T00:20:09.579Z,88.29
2019-02-14T00:22:40.906Z,88.40
2019-02-14T00:25:12.798Z,88.35
2019-02-14T00:27:45.047Z,88.52
2019-02-14T00:30:16.430Z,88.44
2019-02-14T00:32:47.796Z,88.72
2019-02-14T00:35:24.956Z,88.14
2019-02-14T00:37:52.064Z,87.88
2019-02-14T00:40:23.421Z,87.77
2019-02-14T00:42:54.723Z,87.64
2019-02-14T00:45:26.044Z,88.17
2019-02-14T00:47:57.364Z,88.00
2019-02-14T00:50:28.626Z,87.98
2019-02-14T00:53:00.685Z,88.83
2019-02-14T00:55:32.451Z,88.75
2019-02-14T00:58:03.897Z,88.19
2019-02-14T01:00:35.860Z,88.04
2019-02-14T01:03:07.680Z,88.00
2019-02-14T01:05:39.026Z,88.29
2019-02-14T01:08:10.482Z,88.36
2019-02-14T01:10:42.112Z,88.39
2019-02-14T01:13:13.332Z,88.56
2019-02-14T01:15:44.989Z,88.82
2019-02-14T01:18:16.225Z,90.10
2019-02-14T01:20:47.568Z,89.65
2019-02-14T01:23:19.250Z,89.23
2019-02-14T01:25:50.453Z,89.03
2019-02-14T01:28:21.788Z,89.25
2019-02-14T01:30:53.178Z,89.39
2019-02-14T01:33:25.465Z,89.49
2019-02-14T01:35:57.021Z,89.51
2019-02-14T01:38:28.310Z,88.90
2019-02-14T01:41:00.114Z,88.37
2019-02-14T01:43:31.465Z,88.23
2019-02-14T01:46:02.903Z,88.24
2019-02-14T01:48:34.517Z,87.61
2019-02-14T01:51:05.827Z,88.03
2019-02-14T01:53:37.406Z,88.27
2019-02-14T01:56:08.731Z,88.69
2019-02-14T01:58:40.073Z,88.82
2019-02-14T02:01:11.611Z,89.25
2019-02-14T02:03:42.888Z,89.16
2019-02-14T02:06:14.146Z,89.76
2019-02-14T02:08:45.793Z,89.91
2019-02-14T02:11:17.131Z,89.62
2019-02-14T02:13:48.428Z,89.28
2019-02-14T02:16:19.630Z,89.24
2019-02-14T02:18:51.912Z,89.34
2019-02-14T02:21:23.264Z,89.28
2019-02-14T02:23:54.613Z,89.57
2019-02-14T02:26:25.893Z,89.46
2019-02-14T02:28:57.258Z,89.09
2019-02-14T02:31:28.474Z,89.07
2019-02-14T02:33:59.781Z,89.34
2019-02-14T02:36:31.574Z,89.29
2019-02-14T02:39:04.499Z,89.04
2019-02-14T02:41:37.077Z,89.56
2019-02-14T02:44:09.114Z,90.24
2019-02-14T02:46:40.608Z,90.42
2019-02-14T02:49:11.907Z,89.91
2019-02-14T02:51:43.454Z,89.82
2019-02-14T02:54:14.803Z,89.66
2019-02-14T02:56:46.409Z,89.90
2019-02-14T02:59:17.770Z,90.10
2019-02-14T03:01:49.102Z,89.81
2019-02-14T03:04:20.387Z,89.89
2019-02-14T03:06:52.026Z,90.01
2019-02-14T03:09:23.741Z,89.35
2019-02-14T03:11:55.409Z,88.47
2019-02-14T03:14:26.901Z,87.98
2019-02-14T03:16:58.261Z,88.03
2019-02-14T03:19:29.778Z,88.46
2019-02-14T03:22:00.962Z,88.14
2019-02-14T03:24:32.161Z,88.54
2019-02-14T03:27:03.509Z,89.05
2019-02-14T03:29:34.786Z,89.40
2019-02-14T03:32:06.195Z,88.95
2019-02-14T03:34:37.602Z,89.47
2019-02-14T03:37:10.373Z,89.96
2019-02-14T03:39:41.616Z,90.06
2019-02-14T03:42:12.957Z,89.89
2019-02-14T03:44:44.519Z,89.62
2019-02-14T03:47:15.964Z,89.29
2019-02-14T03:49:47.678Z,89.09
2019-02-14T03:52:19.053Z,89.01
2019-02-14T03:54:50.407Z,89.12
2019-02-14T03:57:21.662Z,89.14
2019-02-14T03:59:53.097Z,89.60
2019-02-14T04:02:24.433Z,90.04
2019-02-14T04:04:55.775Z,90.13
2019-02-14T04:07:27.212Z,90.34
2019-02-14T04:09:58.649Z,90.04
2019-02-14T04:12:29.835Z,89.65
2019-02-14T04:15:01.131Z,89.76
2019-02-14T04:17:32.457Z,89.70
2019-02-14T04:20:03.879Z,89.69
2019-02-14T04:22:36.325Z,89.88
2019-02-14T04:25:08.018Z,91.05
2019-02-14T04:27:39.382Z,89.94
2019-02-14T04:30:11.859Z,89.58
2019-02-14T04:32:43.142Z,89.24
2019-02-14T04:35:14.489Z,89.13
2019-02-14T04:37:45.814Z,89.13
2019-02-14T04:40:17.179Z,89.32
2019-02-14T04:42:48.432Z,89.96
2019-02-14T04:45:19.786Z,90.02
2019-02-14T04:47:51.179Z,89.95
2019-02-14T04:50:22.456Z,89.98
2019-02-14T04:52:53.725Z,90.04
2019-02-14T04:55:25.260Z,89.93
2019-02-14T04:57:57.165Z,89.82
2019-02-14T05:00:28.534Z,90.05
2019-02-14T05:03:00.095Z,89.47
2019-02-14T05:05:31.365Z,88.92
2019-02-14T05:08:03.264Z,88.68
2019-02-14T05:10:34.578Z,89.13
2019-02-14T05:13:05.916Z,89.59
2019-02-14T05:15:37.567Z,88.80
2019-02-14T05:18:09.224Z,88.76
2019-02-14T05:20:40.436Z,88.76
2019-02-14T05:23:12.103Z,89.08
2019-02-14T05:25:43.371Z,89.32
2019-02-14T05:28:14.579Z,89.38
2019-02-14T05:30:45.766Z,89.66
2019-02-14T05:33:17.159Z,89.64
2019-02-14T05:35:48.821Z,89.70
2019-02-14T05:38:20.066Z,89.91
2019-02-14T05:40:51.616Z,90.12
2019-02-14T05:43:23.513Z,90.07
2019-02-14T05:45:54.878Z,90.07
2019-02-14T05:48:26.424Z,90.57
2019-02-14T05:50:58.072Z,90.61
2019-02-14T05:53:29.342Z,90.49
2019-02-14T05:56:00.933Z,90.35
2019-02-14T05:58:32.158Z,90.06
2019-02-14T06:01:03.716Z,90.07
2019-02-14T06:03:35.130Z,90.22
2019-02-14T06:06:06.477Z,89.98
2019-02-14T06:08:37.678Z,89.85
2019-02-14T06:11:08.967Z,90.00
2019-02-14T06:13:40.176Z,90.04
2019-02-14T06:16:11.471Z,89.96
2019-02-14T06:18:43.090Z,90.03
2019-02-14T06:21:14.436Z,90.12
2019-02-14T06:23:45.632Z,90.11
2019-02-14T06:26:16.926Z,90.49
2019-02-14T06:28:48.124Z,90.65
2019-02-14T06:31:19.537Z,91.00
2019-02-14T06:33:50.944Z,91.07
2019-02-14T06:36:22.689Z,91.10
2019-02-14T06:38:55.105Z,91.00
2019-02-14T06:41:26.468Z,91.11
2019-02-14T06:43:57.902Z,91.25
2019-02-14T06:46:29.579Z,91.23
2019-02-14T06:49:00.962Z,90.84
2019-02-14T06:51:32.242Z,90.51
2019-02-14T06:54:03.742Z,90.39
2019-02-14T06:56:35.401Z,90.05
2019-02-14T06:59:06.744Z,89.46
2019-02-14T07:01:39.985Z,89.34
2019-02-14T07:04:11.327Z,89.11
2019-02-14T07:06:42.612Z,89.20
2019-02-14T07:09:13.964Z,89.53
2019-02-14T07:11:45.666Z,88.81
2019-02-14T07:14:17.266Z,88.64
2019-02-14T07:16:48.906Z,87.95
2019-02-14T07:19:20.743Z,87.09
2019-02-14T07:21:52.116Z,86.77
2019-02-14T07:24:23.713Z,86.21
2019-02-14T07:26:55.241Z,85.96
2019-02-14T07:29:26.534Z,86.23
2019-02-14T07:31:59.161Z,86.54
2019-02-14T07:34:31.046Z,86.11
2019-02-14T07:37:02.513Z,84.85
2019-02-14T07:39:34.114Z,84.44
2019-02-14T07:42:05.561Z,83.86
2019-02-14T07:44:37.242Z,83.59
2019-02-14T07:47:08.605Z,82.72
2019-02-14T07:49:40.113Z,82.71
2019-02-14T07:52:11.437Z,83.03
2019-02-14T07:54:42.788Z,82.65
2019-02-14T07:57:14.062Z,81.55
2019-02-14T07:59:45.443Z,80.28
2019-02-14T08:02:16.968Z,77.71
2019-02-14T08:04:48.241Z,77.42
2019-02-14T08:07:19.954Z,77.38
2019-02-14T08:09:51.545Z,77.90
2019-02-14T08:12:23.044Z,78.66
2019-02-14T08:14:55.276Z,78.50
2019-02-14T08:17:27.122Z,76.90
2019-02-14T08:19:58.604Z,74.21
2019-02-14T08:22:30.268Z,72.74
2019-02-14T08:25:01.533Z,71.69
2019-02-14T08:27:33.077Z,71.92
2019-02-14T08:30:05.190Z,72.71
2019-02-14T08:32:36.374Z,73.04
2019-02-14T08:35:08.207Z,73.38
2019-02-14T08:37:45.640Z,73.55
2019-02-14T08:40:20.932Z,72.49
2019-02-14T08:42:52.788Z,70.78
2019-02-14T08:45:24.558Z,68.95
2019-02-14T08:47:57.117Z,65.95
2019-02-14T08:50:28.410Z,68.74
2019-02-14T08:53:00.009Z,69.58
2019-02-14T08:55:31.414Z,70.46
2019-02-14T08:58:02.847Z,71.94
2019-02-14T09:00:34.956Z,72.57
2019-02-14T09:03:06.281Z,72.83
2019-02-14T09:05:37.909Z,73.72
2019-02-14T09:08:10.390Z,72.72
2019-02-14T09:10:41.675Z,73.43
2019-02-14T09:13:17.281Z,74.12
2019-02-14T09:15:46.235Z,74.47
2019-02-14T09:18:17.993Z,74.16
2019-02-14T09:20:49.435Z,72.64
2019-02-14T09:23:40.005Z,71.77
2019-02-14T09:26:11.333Z,72.23
2019-02-14T09:28:42.645Z,72.95
2019-02-14T09:31:14.087Z,73.28
2019-02-14T09:33:45.767Z,71.54
2019-02-14T09:36:16.933Z,73.57
2019-02-14T09:38:48.307Z,72.19
2019-02-14T09:41:19.730Z,72.18
2019-02-14T09:43:51.932Z,72.70
2019-02-14T09:46:23.288Z,70.31
2019-02-14T09:48:54.623Z,70.42
2019-02-14T09:51:26.013Z,69.57
2019-02-14T09:53:57.777Z,66.80
2019-02-14T09:56:29.163Z,63.27
2019-02-14T09:59:00.555Z,61.51
2019-02-14T10:01:31.921Z,63.43
2019-02-14T10:04:03.335Z,63.28
2019-02-14T10:06:36.952Z,61.29
2019-02-14T10:09:09.608Z,62.44
2019-02-14T10:11:40.950Z,63.51
2019-02-14T10:14:12.265Z,62.71
2019-02-14T10:16:43.613Z,58.29
2019-02-14T10:19:15.267Z,57.22
2019-02-14T10:21:46.776Z,56.10
2019-02-14T10:24:17.963Z,53.75
2019-02-14T10:26:49.288Z,52.96
2019-02-14T10:29:20.822Z,50.33
2019-02-14T10:31:52.379Z,49.75
2019-02-14T10:34:23.946Z,49.06
2019-02-14T10:36:55.450Z,48.51
2019-02-14T10:39:27.180Z,48.38
2019-02-14T10:41:58.623Z,47.71
2019-02-14T10:44:30.269Z,48.81
2019-02-14T10:47:01.822Z,49.63
2019-02-14T10:49:33.518Z,51.00
2019-02-14T10:52:04.896Z,51.41
2019-02-14T10:54:36.176Z,51.85
2019-02-14T10:57:08.032Z,50.22
2019-02-14T10:59:39.461Z,52.26
2019-02-14T11:02:11.628Z,52.41
2019-02-14T11:04:43.286Z,53.12
2019-02-14T11:07:14.621Z,53.80
2019-02-14T11:09:46.539Z,55.14
2019-02-14T11:12:17.933Z,56.23
2019-02-14T11:14:49.859Z,59.21
2019-02-14T11:17:21.251Z,59.72
2019-02-14T11:19:52.707Z,56.97
2019-02-14T11:22:23.999Z,54.88
2019-02-14T11:24:55.447Z,51.68
2019-02-14T11:27:26.743Z,51.30
2019-02-14T11:29:58.149Z,49.39
2019-02-14T11:32:29.456Z,48.03
2019-02-14T11:35:00.835Z,46.99
2019-02-14T11:37:32.126Z,46.35
2019-02-14T11:40:03.585Z,47.61
2019-02-14T11:42:35.013Z,49.00
2019-02-14T11:45:08.421Z,50.79
2019-02-14T11:47:39.705Z,52.06
2019-02-14T11:50:12.173Z,55.77
2019-02-14T11:52:43.630Z,53.56
2019-02-14T11:55:16.687Z,50.02
2019-02-14T11:57:48.141Z,46.85
2019-02-14T12:00:23.113Z,46.05
2019-02-14T12:02:55.934Z,45.19
2019-02-14T12:05:28.189Z,45.03
2019-02-14T12:08:00.092Z,43.68
2019-02-14T12:10:31.577Z,42.92
2019-02-14T12:13:02.914Z,41.76
2019-02-14T12:15:34.294Z,41.76
2019-02-14T12:18:05.673Z,41.31
2019-02-14T12:20:37.132Z,40.82
2019-02-14T12:23:08.788Z,41.73
2019-02-14T12:25:40.056Z,42.63
2019-02-14T12:28:11.538Z,42.22
2019-02-14T12:30:43.189Z,40.02
2019-02-14T12:33:14.490Z,41.58
2019-02-14T12:35:46.353Z,39.93
2019-02-14T12:38:19.710Z,38.97
2019-02-14T12:40:51.157Z,40.79
2019-02-14T12:43:22.657Z,38.20
2019-02-14T12:45:54.018Z,38.71
2019-02-14T12:48:25.316Z,37.93
2019-02-14T12:50:56.764Z,37.46
2019-02-14T12:53:28.072Z,37.68
2019-02-14T12:55:59.486Z,38.22
2019-02-14T12:58:30.840Z,39.04
2019-02-14T13:01:02.215Z,39.92
2019-02-14T13:03:33.525Z,38.95
2019-02-14T13:06:04.986Z,40.23
2019-02-14T13:08:36.541Z,39.31
2019-02-14T13:11:08.101Z,38.21
2019-02-14T13:13:39.499Z,40.72
2019-02-14T13:16:11.725Z,41.42
2019-02-14T13:18:42.995Z,39.55
2019-02-14T13:21:14.912Z,39.05
2019-02-14T13:23:46.795Z,37.17
2019-02-14T13:26:18.593Z,37.87
2019-02-14T13:28:49.893Z,37.87
2019-02-14T13:31:21.174Z,38.90
2019-02-14T13:33:52.596Z,37.42
2019-02-14T13:36:24.027Z,37.09
2019-02-14T13:38:55.680Z,35.39
2019-02-14T13:41:31.148Z,34.51
2019-02-14T13:44:00.420Z,34.04
2019-02-14T13:46:31.994Z,34.66
2019-02-14T13:49:03.455Z,35.26
2019-02-14T13:51:34.829Z,35.11
2019-02-14T13:54:06.283Z,34.60
2019-02-14T13:56:38.153Z,34.66
2019-02-14T13:59:09.653Z,35.65
2019-02-14T14:01:40.975Z,35.60
2019-02-14T14:04:13.594Z,35.31
2019-02-14T14:06:45.213Z,33.78
2019-02-14T14:09:16.664Z,32.47
2019-02-14T14:11:48.252Z,33.47
2019-02-14T14:14:19.934Z,33.57
2019-02-14T14:16:51.379Z,32.54
2019-02-14T14:19:22.791Z,32.05
2019-02-14T14:21:54.420Z,31.60
2019-02-14T14:24:25.998Z,33.12
2019-02-14T14:26:57.321Z,33.53
2019-02-14T14:29:28.900Z,33.64
2019-02-14T14:32:00.556Z,33.91
2019-02-14T14:34:31.913Z,34.58
2019-02-14T14:37:04.307Z,34.63
2019-02-14T14:39:35.579Z,36.13
2019-02-14T14:42:09.024Z,37.27
2019-02-14T14:44:44.397Z,40.84
2019-02-14T14:47:18.118Z,39.44
2019-02-14T14:49:49.756Z,41.07
2019-02-14T14:52:21.438Z,41.76
2019-02-14T14:54:52.779Z,40.61
2019-02-14T14:57:24.459Z,41.52
2019-02-14T14:59:55.816Z,40.70
2019-02-14T15:02:27.127Z,39.30
2019-02-14T15:04:58.320Z,38.34
2019-02-14T15:07:30.399Z,38.56
2019-02-14T15:10:01.876Z,38.40
2019-02-14T15:12:33.338Z,38.94
2019-02-14T15:15:04.832Z,39.04
2019-02-14T15:17:37.523Z,39.56
2019-02-14T15:20:09.131Z,40.01
2019-02-14T15:22:41.024Z,40.48
2019-02-14T15:25:12.528Z,41.44
2019-02-14T15:27:43.916Z,42.08
2019-02-14T15:30:15.399Z,43.42
2019-02-14T15:32:46.883Z,42.77
2019-02-14T15:35:18.165Z,43.45
2019-02-14T15:37:49.560Z,44.71
2019-02-14T15:40:21.059Z,48.28
2019-02-14T15:42:52.379Z,50.23
2019-02-14T15:45:23.675Z,48.59
2019-02-14T15:47:55.307Z,49.52
2019-02-14T15:50:27.882Z,50.69
2019-02-14T15:52:59.584Z,52.16
2019-02-14T15:55:30.920Z,53.58
2019-02-14T15:58:04.322Z,54.13
2019-02-14T16:00:35.595Z,55.08
2019-02-14T16:03:07.045Z,56.02
2019-02-14T16:05:40.288Z,55.35
2019-02-14T16:08:12.112Z,56.19
2019-02-14T16:10:43.471Z,58.42
2019-02-14T16:13:14.986Z,58.46
2019-02-14T16:15:46.747Z,61.93
2019-02-14T16:18:18.085Z,62.31
2019-02-14T16:20:49.858Z,61.78
2019-02-14T16:23:21.333Z,63.76
2019-02-14T16:25:54.075Z,64.79
2019-02-14T16:28:27.143Z,65.75
2019-02-14T16:30:58.855Z,65.86
2019-02-14T16:33:31.044Z,64.94
2019-02-14T16:36:02.571Z,64.80
2019-02-14T16:38:35.530Z,65.73
2019-02-14T16:41:07.737Z,67.27
2019-02-14T16:43:40.020Z,67.60
2019-02-14T16:46:11.539Z,67.86
2019-02-14T16:48:42.812Z,69.20
2019-02-14T16:51:14.121Z,69.90
2019-02-14T16:53:45.518Z,72.85
2019-02-14T16:56:16.908Z,73.83
2019-02-14T16:58:48.666Z,76.49
2019-02-14T17:01:19.940Z,76.93
2019-02-14T17:03:51.350Z,77.85
2019-02-14T17:06:22.932Z,77.42
2019-02-14T17:08:54.164Z,74.66
2019-02-14T17:11:25.443Z,73.47
2019-02-14T17:13:57.137Z,73.97
2019-02-14T17:16:28.472Z,73.51
2019-02-14T17:18:59.835Z,73.78
2019-02-14T17:21:31.555Z,72.92
2019-02-14T17:24:02.817Z,72.89
2019-02-14T17:26:36.400Z,73.91
2019-02-14T17:29:07.998Z,74.18
2019-02-14T17:31:39.259Z,72.34
2019-02-14T17:34:10.708Z,69.75
2019-02-14T17:36:42.300Z,69.50
2019-02-14T17:39:13.652Z,69.72
2019-02-14T17:41:45.079Z,70.72
2019-02-14T17:44:16.498Z,72.21
2019-02-14T17:46:47.848Z,72.34
2019-02-14T17:49:19.077Z,72.35
2019-02-14T17:51:50.379Z,72.41
2019-02-14T17:54:22.045Z,71.32
2019-02-14T17:56:53.387Z,70.00
2019-02-14T17:59:24.614Z,69.57
2019-02-14T18:01:56.601Z,69.15
2019-02-14T18:04:28.232Z,69.28
2019-02-14T18:06:59.570Z,69.11
2019-02-14T18:09:31.233Z,69.14
2019-02-14T18:12:02.579Z,69.03
2019-02-14T18:14:34.003Z,69.35
2019-02-14T18:17:05.865Z,70.16
2019-02-14T18:19:37.363Z,70.63
2019-02-14T18:22:08.989Z,71.23
2019-02-14T18:24:40.370Z,71.76
2019-02-14T18:27:12.086Z,71.19
2019-02-14T18:29:44.557Z,73.56
2019-02-14T18:32:16.275Z,75.19
2019-02-14T18:34:47.958Z,77.42
2019-02-14T18:37:19.330Z,76.64
2019-02-14T18:39:51.031Z,75.02
2019-02-14T18:42:22.856Z,74.74
2019-02-14T18:44:54.314Z,74.85
2019-02-14T18:47:25.821Z,73.95
2019-02-14T18:49:58.566Z,74.67
2019-02-14T18:52:30.277Z,75.27
2019-02-14T18:55:02.191Z,74.20
2019-02-14T18:57:33.794Z,76.24
2019-02-14T19:00:07.052Z,78.87
2019-02-14T19:02:39.456Z,79.63
2019-02-14T19:05:11.926Z,78.63
2019-02-14T19:07:44.593Z,78.20
2019-02-14T19:10:16.520Z,75.75
2019-02-14T19:12:48.138Z,75.30
2019-02-14T19:15:20.020Z,73.24
2019-02-14T19:17:51.948Z,72.85
2019-02-14T19:20:23.409Z,73.00
2019-02-14T19:22:55.068Z,73.29
2019-02-14T19:25:29.480Z,74.04
2019-02-14T19:27:59.829Z,74.40
2019-02-14T19:30:31.982Z,75.02
2019-02-14T19:33:03.576Z,74.67
2019-02-14T19:35:35.026Z,75.33
2019-02-14T19:38:06.801Z,75.01
2019-02-14T19:40:38.049Z,74.41
2019-02-14T19:43:09.438Z,74.43
2019-02-14T19:45:40.820Z,74.59
2019-02-14T19:48:12.280Z,75.91
2019-02-14T19:50:43.588Z,77.16
2019-02-14T19:53:15.286Z,77.14
2019-02-14T19:55:47.210Z,77.29
2019-02-14T19:58:19.041Z,76.81
2019-02-14T20:00:50.468Z,76.49
2019-02-14T20:03:22.000Z,77.02
2019-02-14T20:05:53.409Z,76.92
2019-02-14T20:08:24.990Z,76.12
2019-02-14T20:10:56.515Z,76.41
2019-02-14T20:13:28.053Z,75.90
2019-02-14T20:15:59.385Z,75.29
2019-02-14T20:18:30.779Z,74.97
2019-02-14T20:21:02.200Z,75.00
2019-02-14T20:23:35.183Z,76.50
2019-02-14T20:26:06.705Z,76.71
2019-02-14T20:28:38.079Z,77.47
2019-02-14T20:31:09.517Z,77.32
2019-02-14T20:33:41.155Z,77.91
2019-02-14T20:36:12.483Z,78.18
2019-02-14T20:38:44.081Z,79.42
2019-02-14T20:41:15.704Z,80.36
2019-02-14T20:43:47.504Z,79.27
2019-02-14T20:46:19.015Z,78.92
2019-02-14T20:48:51.186Z,79.00
2019-02-14T20:51:23.488Z,78.77
2019-02-14T20:53:54.998Z,81.28
2019-02-14T20:56:26.495Z,82.47
2019-02-14T20:58:58.399Z,82.62
2019-02-14T21:01:30.107Z,81.23
2019-02-14T21:04:01.662Z,80.78
2019-02-14T21:06:33.276Z,79.52
2019-02-14T21:09:05.871Z,78.76
2019-02-14T21:11:39.266Z,78.64
2019-02-14T21:14:10.740Z,78.88
2019-02-14T21:16:42.314Z,78.96
2019-02-14T21:19:14.133Z,79.34
2019-02-14T21:21:45.535Z,78.58
2019-02-14T21:24:17.079Z,77.45
2019-02-14T21:26:48.940Z,77.07
2019-02-14T21:29:20.649Z,76.54
2019-02-14T21:31:52.402Z,77.42
2019-02-14T21:34:23.963Z,79.01
2019-02-14T21:36:56.156Z,79.65
2019-02-14T21:39:28.217Z,80.61
2019-02-14T21:42:18.850Z,79.71
2019-02-14T21:44:33.062Z,79.67
2019-02-14T21:47:05.484Z,80.73
2019-02-14T21:49:37.136Z,81.21
2019-02-14T21:52:08.968Z,81.52
2019-02-14T21:54:40.770Z,81.55
2019-02-14T21:57:12.519Z,81.68
2019-02-14T21:59:44.404Z,82.04
2019-02-14T22:02:16.034Z,82.07
2019-02-14T22:04:48.677Z,82.47
2019-02-14T22:07:20.216Z,82.75
2019-02-14T22:09:51.847Z,83.06
2019-02-14T22:12:39.121Z,82.72
2019-02-14T22:14:58.169Z,82.65
2019-02-14T22:17:30.184Z,82.75
2019-02-14T22:20:01.884Z,83.50
2019-02-14T22:22:34.530Z,84.08
2019-02-14T22:25:08.262Z,84.38
2019-02-14T22:27:40.371Z,84.52
2019-02-14T22:30:14.702Z,85.12
2019-02-14T22:32:46.612Z,86.48
2019-02-14T22:35:18.626Z,86.45
2019-02-14T22:37:50.288Z,85.65
2019-02-14T22:40:21.745Z,84.48
2019-02-14T22:42:53.988Z,84.01
2019-02-14T22:45:25.494Z,84.14
2019-02-14T22:47:57.370Z,84.38
2019-02-14T22:50:29.179Z,84.65
2019-02-14T22:53:00.752Z,85.10
2019-02-14T22:55:32.467Z,84.43
2019-02-14T22:58:03.906Z,83.24
2019-02-14T23:00:43.519Z,84.30
2019-02-14T23:03:15.872Z,84.64
2019-02-14T23:05:47.700Z,83.92
2019-02-14T23:08:19.552Z,83.66
2019-02-14T23:10:51.930Z,83.60
2019-02-14T23:13:23.455Z,82.61
2019-02-14T23:15:54.884Z,82.09
2019-02-14T23:18:52.259Z,81.82
2019-02-14T23:21:23.788Z,81.67
2019-02-14T23:23:55.570Z,82.08
2019-02-14T23:26:27.117Z,82.42
2019-02-14T23:28:58.882Z,82.57
2019-02-14T23:31:30.328Z,82.32
2019-02-14T23:34:01.808Z,82.22
2019-02-14T23:36:33.644Z,82.81
2019-02-14T23:39:06.901Z,83.57
2019-02-14T23:41:40.057Z,84.02
2019-02-14T23:44:11.582Z,84.19
2019-02-14T23:46:43.084Z,83.86
2019-02-14T23:49:14.600Z,84.14
2019-02-14T23:51:46.036Z,84.60
2019-02-14T23:54:17.531Z,85.09
2019-02-14T23:56:49.115Z,85.00
2019-02-14T23:59:20.521Z,85.08
